sensor_id;sensor_type;location;lat;lon;timestamp;P1;durP1;ratioP1;P2;durP2;ratioP2
80854;SDS011;70272;49.222;-122.892;2024-02-21T00:01:54;2.60;;;1.77;;
80854;SDS011;70272;49.222;-122.892;2024-02-21T00:04:21;3.10;;;1.95;;
80854;SDS011;70272;49.222;-122.892;2024-02-21T00:06:47;1.83;;;1.58;;
80854;SDS011;70272;49.222;-122.892;2024-02-21T00:09:13;2.85;;;1.80;;
80854;SDS011;70272;49.222;-122.892;2024-02-21T00:11:40;2.95;;;2.10;;
80854;SDS011;70272;49.222;-122.892;2024-02-21T00:14:06;2.35;;;1.73;;
80854;SDS011;70272;49.222;-122.892;2024-02-21T00:16:32;2.17;;;1.60;;
80854;SDS011;70272;49.222;-122.892;2024-02-21T00:18:58;2.30;;;1.50;;
80854;SDS011;70272;49.222;-122.892;2024-02-21T00:21:25;2.38;;;1.60;;
80854;SDS011;70272;49.222;-122.892;2024-02-21T00:23:51;3.67;;;1.60;;
80854;SDS011;70272;49.222;-122.892;2024-02-21T00:26:17;2.15;;;1.50;;
80854;SDS011;70272;49.222;-122.892;2024-02-21T00:28:44;1.88;;;1.50;;
80854;SDS011;70272;49.222;-122.892;2024-02-21T00:31:10;2.72;;;2.08;;
80854;SDS011;70272;49.222;-122.892;2024-02-21T00:33:36;2.15;;;1.73;;
80854;SDS011;70272;49.222;-122.892;2024-02-21T00:36:03;2.20;;;1.70;;
80854;SDS011;70272;49.222;-122.892;2024-02-21T00:38:29;2.78;;;1.42;;
80854;SDS011;70272;49.222;-122.892;2024-02-21T00:40:56;2.05;;;1.50;;
80854;SDS011;70272;49.222;-122.892;2024-02-21T00:43:24;1.30;;;1.20;;
80854;SDS011;70272;49.222;-122.892;2024-02-21T00:45:51;2.78;;;1.30;;
80854;SDS011;70272;49.222;-122.892;2024-02-21T00:48:17;2.13;;;1.30;;
80854;SDS011;70272;49.222;-122.892;2024-02-21T00:50:43;1.95;;;1.23;;
80854;SDS011;70272;49.222;-122.892;2024-02-21T00:53:10;1.73;;;1.30;;
80854;SDS011;70272;49.222;-122.892;2024-02-21T00:55:36;2.50;;;1.60;;
80854;SDS011;70272;49.222;-122.892;2024-02-21T00:58:02;1.40;;;1.30;;
80854;SDS011;70272;49.222;-122.892;2024-02-21T01:00:29;2.63;;;1.50;;
80854;SDS011;70272;49.222;-122.892;2024-02-21T01:02:55;2.60;;;1.50;;
80854;SDS011;70272;49.222;-122.892;2024-02-21T01:05:21;1.40;;;1.30;;
80854;SDS011;70272;49.222;-122.892;2024-02-21T01:07:48;3.45;;;1.75;;
80854;SDS011;70272;49.222;-122.892;2024-02-21T01:10:14;1.70;;;1.30;;
80854;SDS011;70272;49.222;-122.892;2024-02-21T01:12:42;2.15;;;1.58;;
80854;SDS011;70272;49.222;-122.892;2024-02-21T01:15:08;1.48;;;1.38;;
80854;SDS011;70272;49.222;-122.892;2024-02-21T01:17:35;2.53;;;1.15;;
80854;SDS011;70272;49.222;-122.892;2024-02-21T01:20:02;2.90;;;1.73;;
80854;SDS011;70272;49.222;-122.892;2024-02-21T01:22:30;1.63;;;1.30;;
80854;SDS011;70272;49.222;-122.892;2024-02-21T01:24:57;3.17;;;1.55;;
80854;SDS011;70272;49.222;-122.892;2024-02-21T01:27:23;1.65;;;1.50;;
80854;SDS011;70272;49.222;-122.892;2024-02-21T01:29:49;2.13;;;1.60;;
80854;SDS011;70272;49.222;-122.892;2024-02-21T01:32:16;1.60;;;1.30;;
80854;SDS011;70272;49.222;-122.892;2024-02-21T01:34:42;2.15;;;1.45;;
80854;SDS011;70272;49.222;-122.892;2024-02-21T01:37:09;2.05;;;1.42;;
80854;SDS011;70272;49.222;-122.892;2024-02-21T01:39:35;1.38;;;1.25;;
80854;SDS011;70272;49.222;-122.892;2024-02-21T01:42:01;1.45;;;1.15;;
80854;SDS011;70272;49.222;-122.892;2024-02-21T01:44:28;1.55;;;1.45;;
80854;SDS011;70272;49.222;-122.892;2024-02-21T01:46:54;1.92;;;1.52;;
80854;SDS011;70272;49.222;-122.892;2024-02-21T01:49:21;1.50;;;1.40;;
80854;SDS011;70272;49.222;-122.892;2024-02-21T01:51:47;1.80;;;1.30;;
80854;SDS011;70272;49.222;-122.892;2024-02-21T01:54:14;1.42;;;1.33;;
80854;SDS011;70272;49.222;-122.892;2024-02-21T01:56:42;1.38;;;1.20;;
80854;SDS011;70272;49.222;-122.892;2024-02-21T01:59:09;2.85;;;1.40;;
80854;SDS011;70272;49.222;-122.892;2024-02-21T02:01:36;1.42;;;1.20;;
80854;SDS011;70272;49.222;-122.892;2024-02-21T02:04:02;2.45;;;1.70;;
80854;SDS011;70272;49.222;-122.892;2024-02-21T02:06:30;1.73;;;1.35;;
80854;SDS011;70272;49.222;-122.892;2024-02-21T02:08:57;3.15;;;1.50;;
80854;SDS011;70272;49.222;-122.892;2024-02-21T02:11:23;3.65;;;1.60;;
80854;SDS011;70272;49.222;-122.892;2024-02-21T02:13:49;5.20;;;1.83;;
80854;SDS011;70272;49.222;-122.892;2024-02-21T02:16:16;2.67;;;1.33;;
80854;SDS011;70272;49.222;-122.892;2024-02-21T02:18:42;1.83;;;1.35;;
80854;SDS011;70272;49.222;-122.892;2024-02-21T02:21:13;1.45;;;1.30;;
80854;SDS011;70272;49.222;-122.892;2024-02-21T02:23:52;1.50;;;1.13;;
80854;SDS011;70272;49.222;-122.892;2024-02-21T02:26:19;1.13;;;0.98;;
80854;SDS011;70272;49.222;-122.892;2024-02-21T02:28:45;1.42;;;1.30;;
80854;SDS011;70272;49.222;-122.892;2024-02-21T02:31:12;1.88;;;1.30;;
80854;SDS011;70272;49.222;-122.892;2024-02-21T02:33:38;1.67;;;1.42;;
80854;SDS011;70272;49.222;-122.892;2024-02-21T02:36:04;2.40;;;1.50;;
80854;SDS011;70272;49.222;-122.892;2024-02-21T02:38:31;2.75;;;1.67;;
80854;SDS011;70272;49.222;-122.892;2024-02-21T02:40:57;2.72;;;1.52;;
80854;SDS011;70272;49.222;-122.892;2024-02-21T02:43:24;1.60;;;1.40;;
80854;SDS011;70272;49.222;-122.892;2024-02-21T02:45:50;3.45;;;2.50;;
80854;SDS011;70272;49.222;-122.892;2024-02-21T02:48:16;1.90;;;1.45;;
80854;SDS011;70272;49.222;-122.892;2024-02-21T02:50:43;1.65;;;1.13;;
80854;SDS011;70272;49.222;-122.892;2024-02-21T02:53:11;2.85;;;1.40;;
80854;SDS011;70272;49.222;-122.892;2024-02-21T02:55:37;2.50;;;1.50;;
80854;SDS011;70272;49.222;-122.892;2024-02-21T02:58:03;2.55;;;1.40;;
80854;SDS011;70272;49.222;-122.892;2024-02-21T03:00:30;1.58;;;1.27;;
80854;SDS011;70272;49.222;-122.892;2024-02-21T03:02:56;3.17;;;1.58;;
80854;SDS011;70272;49.222;-122.892;2024-02-21T03:05:22;2.35;;;1.42;;
80854;SDS011;70272;49.222;-122.892;2024-02-21T03:07:49;2.10;;;1.30;;
80854;SDS011;70272;49.222;-122.892;2024-02-21T03:10:15;1.67;;;1.35;;
80854;SDS011;70272;49.222;-122.892;2024-02-21T03:12:41;2.25;;;1.40;;
80854;SDS011;70272;49.222;-122.892;2024-02-21T03:15:11;2.05;;;1.30;;
80854;SDS011;70272;49.222;-122.892;2024-02-21T03:17:38;2.40;;;1.40;;
80854;SDS011;70272;49.222;-122.892;2024-02-21T03:20:05;2.25;;;1.52;;
80854;SDS011;70272;49.222;-122.892;2024-02-21T03:22:35;1.95;;;1.45;;
80854;SDS011;70272;49.222;-122.892;2024-02-21T03:25:02;2.25;;;1.83;;
80854;SDS011;70272;49.222;-122.892;2024-02-21T03:27:28;2.42;;;1.60;;
80854;SDS011;70272;49.222;-122.892;2024-02-21T03:29:55;5.03;;;1.90;;
80854;SDS011;70272;49.222;-122.892;2024-02-21T03:32:21;2.72;;;1.65;;
80854;SDS011;70272;49.222;-122.892;2024-02-21T03:34:47;3.50;;;1.90;;
80854;SDS011;70272;49.222;-122.892;2024-02-21T03:37:14;3.72;;;1.80;;
80854;SDS011;70272;49.222;-122.892;2024-02-21T03:39:40;2.75;;;1.60;;
80854;SDS011;70272;49.222;-122.892;2024-02-21T03:42:06;4.28;;;1.88;;
80854;SDS011;70272;49.222;-122.892;2024-02-21T03:44:33;2.50;;;1.63;;
80854;SDS011;70272;49.222;-122.892;2024-02-21T03:46:59;4.38;;;1.67;;
80854;SDS011;70272;49.222;-122.892;2024-02-21T03:49:26;3.92;;;1.95;;
80854;SDS011;70272;49.222;-122.892;2024-02-21T03:51:52;2.67;;;1.80;;
80854;SDS011;70272;49.222;-122.892;2024-02-21T03:54:19;3.20;;;1.73;;
80854;SDS011;70272;49.222;-122.892;2024-02-21T03:56:45;2.78;;;1.60;;
80854;SDS011;70272;49.222;-122.892;2024-02-21T03:59:15;2.50;;;1.90;;
80854;SDS011;70272;49.222;-122.892;2024-02-21T04:01:41;3.35;;;1.70;;
80854;SDS011;70272;49.222;-122.892;2024-02-21T04:04:07;3.22;;;1.90;;
80854;SDS011;70272;49.222;-122.892;2024-02-21T04:06:35;3.00;;;1.50;;
80854;SDS011;70272;49.222;-122.892;2024-02-21T04:09:04;4.00;;;1.52;;
80854;SDS011;70272;49.222;-122.892;2024-02-21T04:11:30;1.73;;;1.50;;
80854;SDS011;70272;49.222;-122.892;2024-02-21T04:13:57;1.50;;;1.38;;
80854;SDS011;70272;49.222;-122.892;2024-02-21T04:16:23;1.58;;;1.40;;
80854;SDS011;70272;49.222;-122.892;2024-02-21T04:18:49;2.75;;;1.70;;
80854;SDS011;70272;49.222;-122.892;2024-02-21T04:21:16;2.10;;;1.60;;
80854;SDS011;70272;49.222;-122.892;2024-02-21T04:23:43;2.10;;;1.38;;
80854;SDS011;70272;49.222;-122.892;2024-02-21T04:26:09;3.55;;;1.40;;
80854;SDS011;70272;49.222;-122.892;2024-02-21T04:28:35;2.47;;;1.40;;
80854;SDS011;70272;49.222;-122.892;2024-02-21T04:31:01;1.50;;;1.30;;
80854;SDS011;70272;49.222;-122.892;2024-02-21T04:33:28;1.80;;;1.48;;
80854;SDS011;70272;49.222;-122.892;2024-02-21T04:35:54;3.08;;;1.70;;
80854;SDS011;70272;49.222;-122.892;2024-02-21T04:38:21;1.67;;;1.30;;
80854;SDS011;70272;49.222;-122.892;2024-02-21T04:40:47;2.00;;;1.55;;
80854;SDS011;70272;49.222;-122.892;2024-02-21T04:43:14;1.55;;;1.40;;
80854;SDS011;70272;49.222;-122.892;2024-02-21T04:45:40;1.60;;;1.42;;
80854;SDS011;70272;49.222;-122.892;2024-02-21T04:48:06;2.15;;;1.40;;
80854;SDS011;70272;49.222;-122.892;2024-02-21T04:50:32;1.50;;;1.40;;
80854;SDS011;70272;49.222;-122.892;2024-02-21T04:52:59;2.80;;;1.80;;
80854;SDS011;70272;49.222;-122.892;2024-02-21T04:55:25;2.05;;;1.60;;
80854;SDS011;70272;49.222;-122.892;2024-02-21T04:57:51;3.20;;;1.80;;
80854;SDS011;70272;49.222;-122.892;2024-02-21T05:00:18;2.13;;;1.50;;
80854;SDS011;70272;49.222;-122.892;2024-02-21T05:02:44;2.85;;;1.80;;
80854;SDS011;70272;49.222;-122.892;2024-02-21T05:05:10;2.00;;;1.50;;
80854;SDS011;70272;49.222;-122.892;2024-02-21T05:07:37;2.00;;;1.42;;
80854;SDS011;70272;49.222;-122.892;2024-02-21T05:10:03;2.58;;;1.67;;
80854;SDS011;70272;49.222;-122.892;2024-02-21T05:12:30;3.63;;;1.60;;
80854;SDS011;70272;49.222;-122.892;2024-02-21T05:14:56;2.40;;;1.52;;
80854;SDS011;70272;49.222;-122.892;2024-02-21T05:17:22;1.95;;;1.45;;
80854;SDS011;70272;49.222;-122.892;2024-02-21T05:19:49;1.90;;;1.42;;
80854;SDS011;70272;49.222;-122.892;2024-02-21T05:22:15;2.05;;;1.40;;
80854;SDS011;70272;49.222;-122.892;2024-02-21T05:24:41;5.85;;;2.55;;
80854;SDS011;70272;49.222;-122.892;2024-02-21T05:27:08;1.88;;;1.40;;
80854;SDS011;70272;49.222;-122.892;2024-02-21T05:29:34;1.52;;;1.35;;
80854;SDS011;70272;49.222;-122.892;2024-02-21T05:32:00;2.35;;;1.70;;
80854;SDS011;70272;49.222;-122.892;2024-02-21T05:34:27;2.72;;;1.50;;
80854;SDS011;70272;49.222;-122.892;2024-02-21T05:36:54;2.25;;;1.67;;
80854;SDS011;70272;49.222;-122.892;2024-02-21T05:39:20;2.10;;;1.60;;
80854;SDS011;70272;49.222;-122.892;2024-02-21T05:41:48;1.45;;;1.30;;
80854;SDS011;70272;49.222;-122.892;2024-02-21T05:44:15;1.70;;;1.40;;
80854;SDS011;70272;49.222;-122.892;2024-02-21T05:46:42;3.65;;;1.75;;
80854;SDS011;70272;49.222;-122.892;2024-02-21T05:49:08;1.50;;;1.40;;
80854;SDS011;70272;49.222;-122.892;2024-02-21T05:51:35;1.65;;;1.33;;
80854;SDS011;70272;49.222;-122.892;2024-02-21T05:54:01;2.10;;;1.52;;
80854;SDS011;70272;49.222;-122.892;2024-02-21T05:56:27;2.30;;;1.50;;
80854;SDS011;70272;49.222;-122.892;2024-02-21T05:58:54;1.63;;;1.40;;
80854;SDS011;70272;49.222;-122.892;2024-02-21T06:01:20;2.17;;;1.45;;
80854;SDS011;70272;49.222;-122.892;2024-02-21T06:03:47;3.08;;;1.50;;
80854;SDS011;70272;49.222;-122.892;2024-02-21T06:06:14;1.60;;;1.35;;
80854;SDS011;70272;49.222;-122.892;2024-02-21T06:08:40;2.92;;;1.40;;
80854;SDS011;70272;49.222;-122.892;2024-02-21T06:11:07;3.17;;;1.40;;
80854;SDS011;70272;49.222;-122.892;2024-02-21T06:13:33;1.55;;;1.30;;
80854;SDS011;70272;49.222;-122.892;2024-02-21T06:16:03;3.35;;;2.42;;
80854;SDS011;70272;49.222;-122.892;2024-02-21T06:18:31;2.40;;;1.40;;
80854;SDS011;70272;49.222;-122.892;2024-02-21T06:20:57;2.00;;;1.50;;
80854;SDS011;70272;49.222;-122.892;2024-02-21T06:23:23;1.65;;;1.55;;
80854;SDS011;70272;49.222;-122.892;2024-02-21T06:25:50;3.40;;;1.95;;
80854;SDS011;70272;49.222;-122.892;2024-02-21T06:28:16;1.70;;;1.40;;
80854;SDS011;70272;49.222;-122.892;2024-02-21T06:30:42;2.35;;;1.50;;
80854;SDS011;70272;49.222;-122.892;2024-02-21T06:33:09;3.25;;;1.60;;
80854;SDS011;70272;49.222;-122.892;2024-02-21T06:35:35;3.42;;;1.70;;
80854;SDS011;70272;49.222;-122.892;2024-02-21T06:38:01;2.30;;;1.60;;
80854;SDS011;70272;49.222;-122.892;2024-02-21T06:40:27;3.05;;;1.90;;
80854;SDS011;70272;49.222;-122.892;2024-02-21T06:42:54;1.92;;;1.73;;
80854;SDS011;70272;49.222;-122.892;2024-02-21T06:45:20;2.78;;;1.83;;
80854;SDS011;70272;49.222;-122.892;2024-02-21T06:47:46;3.10;;;1.98;;
80854;SDS011;70272;49.222;-122.892;2024-02-21T06:50:13;3.55;;;2.20;;
80854;SDS011;70272;49.222;-122.892;2024-02-21T06:52:39;3.45;;;1.63;;
80854;SDS011;70272;49.222;-122.892;2024-02-21T06:55:05;1.88;;;1.48;;
80854;SDS011;70272;49.222;-122.892;2024-02-21T06:57:32;3.88;;;2.58;;
80854;SDS011;70272;49.222;-122.892;2024-02-21T06:59:58;2.13;;;1.73;;
80854;SDS011;70272;49.222;-122.892;2024-02-21T07:02:24;2.60;;;1.80;;
80854;SDS011;70272;49.222;-122.892;2024-02-21T07:04:51;2.38;;;1.60;;
80854;SDS011;70272;49.222;-122.892;2024-02-21T07:07:17;3.08;;;2.00;;
80854;SDS011;70272;49.222;-122.892;2024-02-21T07:09:43;2.80;;;1.80;;
80854;SDS011;70272;49.222;-122.892;2024-02-21T07:12:11;2.97;;;1.92;;
80854;SDS011;70272;49.222;-122.892;2024-02-21T07:14:37;2.10;;;1.50;;
80854;SDS011;70272;49.222;-122.892;2024-02-21T07:17:04;3.47;;;2.00;;
80854;SDS011;70272;49.222;-122.892;2024-02-21T07:19:30;3.40;;;1.92;;
80854;SDS011;70272;49.222;-122.892;2024-02-21T07:21:56;2.40;;;1.90;;
80854;SDS011;70272;49.222;-122.892;2024-02-21T07:24:23;4.43;;;1.85;;
80854;SDS011;70272;49.222;-122.892;2024-02-21T07:26:49;3.05;;;2.05;;
80854;SDS011;70272;49.222;-122.892;2024-02-21T07:29:15;2.97;;;2.10;;
80854;SDS011;70272;49.222;-122.892;2024-02-21T07:31:42;3.97;;;2.20;;
80854;SDS011;70272;49.222;-122.892;2024-02-21T07:34:09;3.10;;;2.17;;
80854;SDS011;70272;49.222;-122.892;2024-02-21T07:36:36;3.88;;;2.30;;
80854;SDS011;70272;49.222;-122.892;2024-02-21T07:39:05;3.42;;;1.98;;
80854;SDS011;70272;49.222;-122.892;2024-02-21T07:41:31;3.83;;;1.90;;
80854;SDS011;70272;49.222;-122.892;2024-02-21T07:43:59;2.70;;;1.80;;
80854;SDS011;70272;49.222;-122.892;2024-02-21T07:46:25;3.00;;;1.90;;
80854;SDS011;70272;49.222;-122.892;2024-02-21T07:48:51;2.75;;;1.58;;
80854;SDS011;70272;49.222;-122.892;2024-02-21T07:51:18;2.10;;;1.60;;
80854;SDS011;70272;49.222;-122.892;2024-02-21T07:53:44;2.38;;;1.60;;
80854;SDS011;70272;49.222;-122.892;2024-02-21T07:56:11;2.40;;;1.77;;
80854;SDS011;70272;49.222;-122.892;2024-02-21T07:58:38;2.70;;;1.83;;
80854;SDS011;70272;49.222;-122.892;2024-02-21T08:01:04;2.67;;;1.73;;
80854;SDS011;70272;49.222;-122.892;2024-02-21T08:03:30;1.98;;;1.60;;
80854;SDS011;70272;49.222;-122.892;2024-02-21T08:05:57;2.72;;;1.65;;
80854;SDS011;70272;49.222;-122.892;2024-02-21T08:08:23;2.05;;;1.70;;
80854;SDS011;70272;49.222;-122.892;2024-02-21T08:10:50;2.47;;;1.60;;
80854;SDS011;70272;49.222;-122.892;2024-02-21T08:13:16;2.47;;;1.60;;
80854;SDS011;70272;49.222;-122.892;2024-02-21T08:15:42;3.15;;;2.10;;
80854;SDS011;70272;49.222;-122.892;2024-02-21T08:18:09;3.22;;;1.92;;
80854;SDS011;70272;49.222;-122.892;2024-02-21T08:20:35;2.63;;;1.90;;
80854;SDS011;70272;49.222;-122.892;2024-02-21T08:23:01;2.45;;;1.60;;
80854;SDS011;70272;49.222;-122.892;2024-02-21T08:25:28;2.65;;;1.92;;
80854;SDS011;70272;49.222;-122.892;2024-02-21T08:27:58;3.45;;;1.52;;
80854;SDS011;70272;49.222;-122.892;2024-02-21T08:30:25;1.92;;;1.60;;
80854;SDS011;70272;49.222;-122.892;2024-02-21T08:32:51;2.08;;;1.60;;
80854;SDS011;70272;49.222;-122.892;2024-02-21T08:35:19;1.75;;;1.42;;
80854;SDS011;70272;49.222;-122.892;2024-02-21T08:37:47;1.70;;;1.40;;
80854;SDS011;70272;49.222;-122.892;2024-02-21T08:40:14;2.13;;;1.40;;
80854;SDS011;70272;49.222;-122.892;2024-02-21T08:42:43;4.15;;;2.17;;
80854;SDS011;70272;49.222;-122.892;2024-02-21T08:45:09;3.08;;;1.90;;
80854;SDS011;70272;49.222;-122.892;2024-02-21T08:47:36;2.88;;;1.80;;
80854;SDS011;70272;49.222;-122.892;2024-02-21T08:50:05;2.78;;;1.90;;
80854;SDS011;70272;49.222;-122.892;2024-02-21T08:52:32;3.17;;;2.30;;
80854;SDS011;70272;49.222;-122.892;2024-02-21T08:54:58;2.78;;;2.08;;
80854;SDS011;70272;49.222;-122.892;2024-02-21T08:57:25;3.05;;;1.90;;
80854;SDS011;70272;49.222;-122.892;2024-02-21T08:59:51;3.53;;;2.35;;
80854;SDS011;70272;49.222;-122.892;2024-02-21T09:02:17;3.92;;;2.30;;
80854;SDS011;70272;49.222;-122.892;2024-02-21T09:04:43;2.90;;;2.20;;
80854;SDS011;70272;49.222;-122.892;2024-02-21T09:07:10;2.65;;;1.95;;
80854;SDS011;70272;49.222;-122.892;2024-02-21T09:09:37;3.80;;;2.17;;
80854;SDS011;70272;49.222;-122.892;2024-02-21T09:12:06;3.95;;;2.60;;
80854;SDS011;70272;49.222;-122.892;2024-02-21T09:14:33;2.55;;;1.65;;
80854;SDS011;70272;49.222;-122.892;2024-02-21T09:16:59;3.88;;;1.80;;
80854;SDS011;70272;49.222;-122.892;2024-02-21T09:19:26;2.78;;;1.80;;
80854;SDS011;70272;49.222;-122.892;2024-02-21T09:21:52;3.28;;;2.10;;
80854;SDS011;70272;49.222;-122.892;2024-02-21T09:24:19;3.40;;;1.95;;
80854;SDS011;70272;49.222;-122.892;2024-02-21T09:26:45;2.83;;;1.80;;
80854;SDS011;70272;49.222;-122.892;2024-02-21T09:29:11;3.45;;;2.00;;
80854;SDS011;70272;49.222;-122.892;2024-02-21T09:31:38;2.92;;;1.90;;
80854;SDS011;70272;49.222;-122.892;2024-02-21T09:34:04;2.90;;;1.80;;
80854;SDS011;70272;49.222;-122.892;2024-02-21T09:36:31;3.45;;;2.00;;
80854;SDS011;70272;49.222;-122.892;2024-02-21T09:38:57;3.63;;;2.30;;
80854;SDS011;70272;49.222;-122.892;2024-02-21T09:41:26;3.67;;;2.13;;
80854;SDS011;70272;49.222;-122.892;2024-02-21T09:43:53;3.40;;;2.15;;
80854;SDS011;70272;49.222;-122.892;2024-02-21T09:46:21;3.65;;;2.05;;
80854;SDS011;70272;49.222;-122.892;2024-02-21T09:51:41;3.30;;;2.13;;
80854;SDS011;70272;49.222;-122.892;2024-02-21T09:54:09;3.50;;;2.17;;
80854;SDS011;70272;49.222;-122.892;2024-02-21T09:56:35;3.20;;;2.20;;
80854;SDS011;70272;49.222;-122.892;2024-02-21T09:59:02;4.07;;;2.60;;
80854;SDS011;70272;49.222;-122.892;2024-02-21T10:01:30;3.78;;;2.40;;
80854;SDS011;70272;49.222;-122.892;2024-02-21T10:03:57;3.42;;;2.30;;
80854;SDS011;70272;49.222;-122.892;2024-02-21T10:06:24;3.88;;;2.30;;
80854;SDS011;70272;49.222;-122.892;2024-02-21T10:08:53;3.90;;;2.58;;
80854;SDS011;70272;49.222;-122.892;2024-02-21T10:11:23;3.92;;;2.47;;
80854;SDS011;70272;49.222;-122.892;2024-02-21T10:13:50;2.92;;;2.30;;
80854;SDS011;70272;49.222;-122.892;2024-02-21T10:16:16;4.38;;;2.38;;
80854;SDS011;70272;49.222;-122.892;2024-02-21T10:18:43;2.78;;;1.92;;
80854;SDS011;70272;49.222;-122.892;2024-02-21T10:21:09;2.63;;;1.70;;
80854;SDS011;70272;49.222;-122.892;2024-02-21T10:26:30;2.00;;;1.52;;
80854;SDS011;70272;49.222;-122.892;2024-02-21T10:28:57;2.38;;;1.70;;
80854;SDS011;70272;49.222;-122.892;2024-02-21T10:31:24;1.92;;;1.58;;
80854;SDS011;70272;49.222;-122.892;2024-02-21T10:33:57;3.45;;;1.60;;
80854;SDS011;70272;49.222;-122.892;2024-02-21T10:36:30;1.83;;;1.42;;
80854;SDS011;70272;49.222;-122.892;2024-02-21T10:38:57;1.92;;;1.30;;
80854;SDS011;70272;49.222;-122.892;2024-02-21T10:41:24;2.67;;;1.80;;
80854;SDS011;70272;49.222;-122.892;2024-02-21T10:43:53;2.60;;;1.90;;
80854;SDS011;70272;49.222;-122.892;2024-02-21T10:46:21;2.67;;;1.65;;
80854;SDS011;70272;49.222;-122.892;2024-02-21T10:48:48;2.65;;;1.70;;
80854;SDS011;70272;49.222;-122.892;2024-02-21T10:51:43;2.88;;;1.70;;
80854;SDS011;70272;49.222;-122.892;2024-02-21T10:56:41;3.17;;;1.88;;
80854;SDS011;70272;49.222;-122.892;2024-02-21T10:59:08;4.00;;;2.00;;
80854;SDS011;70272;49.222;-122.892;2024-02-21T11:01:34;2.95;;;1.85;;
80854;SDS011;70272;49.222;-122.892;2024-02-21T11:04:04;2.95;;;1.85;;
80854;SDS011;70272;49.222;-122.892;2024-02-21T11:06:32;2.60;;;1.70;;
80854;SDS011;70272;49.222;-122.892;2024-02-21T11:09:03;3.70;;;1.75;;
80854;SDS011;70272;49.222;-122.892;2024-02-21T11:11:35;3.85;;;1.75;;
80854;SDS011;70272;49.222;-122.892;2024-02-21T11:14:05;2.60;;;1.75;;
80854;SDS011;70272;49.222;-122.892;2024-02-21T11:16:44;3.10;;;2.28;;
80854;SDS011;70272;49.222;-122.892;2024-02-21T11:19:21;5.40;;;2.20;;
80854;SDS011;70272;49.222;-122.892;2024-02-21T11:21:49;2.60;;;1.65;;
80854;SDS011;70272;49.222;-122.892;2024-02-21T11:24:28;4.65;;;2.00;;
80854;SDS011;70272;49.222;-122.892;2024-02-21T11:27:20;2.35;;;1.60;;
80854;SDS011;70272;49.222;-122.892;2024-02-21T11:29:54;2.60;;;1.42;;
80854;SDS011;70272;49.222;-122.892;2024-02-21T11:32:22;1.52;;;1.33;;
80854;SDS011;70272;49.222;-122.892;2024-02-21T11:34:55;1.58;;;1.40;;
80854;SDS011;70272;49.222;-122.892;2024-02-21T11:37:24;1.67;;;1.27;;
80854;SDS011;70272;49.222;-122.892;2024-02-21T11:39:52;1.50;;;1.30;;
80854;SDS011;70272;49.222;-122.892;2024-02-21T11:42:19;1.80;;;1.48;;
80854;SDS011;70272;49.222;-122.892;2024-02-21T11:44:45;1.23;;;1.17;;
80854;SDS011;70272;49.222;-122.892;2024-02-21T11:47:13;1.52;;;1.30;;
80854;SDS011;70272;49.222;-122.892;2024-02-21T11:49:47;2.67;;;1.50;;
80854;SDS011;70272;49.222;-122.892;2024-02-21T11:52:21;2.85;;;1.48;;
80854;SDS011;70272;49.222;-122.892;2024-02-21T11:54:50;1.50;;;1.33;;
80854;SDS011;70272;49.222;-122.892;2024-02-21T11:57:17;1.17;;;1.10;;
80854;SDS011;70272;49.222;-122.892;2024-02-21T11:59:45;3.75;;;1.50;;
80854;SDS011;70272;49.222;-122.892;2024-02-21T12:02:14;2.33;;;1.35;;
80854;SDS011;70272;49.222;-122.892;2024-02-21T12:04:40;1.48;;;1.30;;
80854;SDS011;70272;49.222;-122.892;2024-02-21T12:07:07;1.27;;;1.17;;
80854;SDS011;70272;49.222;-122.892;2024-02-21T12:09:34;1.20;;;1.10;;
80854;SDS011;70272;49.222;-122.892;2024-02-21T12:12:02;1.10;;;1.00;;
80854;SDS011;70272;49.222;-122.892;2024-02-21T12:14:30;1.88;;;1.10;;
80854;SDS011;70272;49.222;-122.892;2024-02-21T12:17:00;2.90;;;1.15;;
80854;SDS011;70272;49.222;-122.892;2024-02-21T12:19:29;1.27;;;1.17;;
80854;SDS011;70272;49.222;-122.892;2024-02-21T12:21:58;1.10;;;1.10;;
80854;SDS011;70272;49.222;-122.892;2024-02-21T12:24:25;0.90;;;0.90;;
80854;SDS011;70272;49.222;-122.892;2024-02-21T12:26:52;0.95;;;0.90;;
80854;SDS011;70272;49.222;-122.892;2024-02-21T12:29:19;0.85;;;0.85;;
80854;SDS011;70272;49.222;-122.892;2024-02-21T12:31:52;1.13;;;1.10;;
80854;SDS011;70272;49.222;-122.892;2024-02-21T12:34:20;0.90;;;0.90;;
80854;SDS011;70272;49.222;-122.892;2024-02-21T12:36:47;0.70;;;0.70;;
80854;SDS011;70272;49.222;-122.892;2024-02-21T12:39:13;0.73;;;0.73;;
80854;SDS011;70272;49.222;-122.892;2024-02-21T12:41:40;0.65;;;0.65;;
80854;SDS011;70272;49.222;-122.892;2024-02-21T12:44:08;0.80;;;0.80;;
80854;SDS011;70272;49.222;-122.892;2024-02-21T12:46:36;1.35;;;0.63;;
80854;SDS011;70272;49.222;-122.892;2024-02-21T12:49:04;0.60;;;0.60;;
80854;SDS011;70272;49.222;-122.892;2024-02-21T12:51:34;1.45;;;1.25;;
80854;SDS011;70272;49.222;-122.892;2024-02-21T12:54:00;1.85;;;0.98;;
80854;SDS011;70272;49.222;-122.892;2024-02-21T12:56:28;0.63;;;0.63;;
80854;SDS011;70272;49.222;-122.892;2024-02-21T12:58:56;0.98;;;0.52;;
80854;SDS011;70272;49.222;-122.892;2024-02-21T13:01:23;0.38;;;0.38;;
80854;SDS011;70272;49.222;-122.892;2024-02-21T13:03:49;0.52;;;0.52;;
80854;SDS011;70272;49.222;-122.892;2024-02-21T13:06:15;0.98;;;0.98;;
80854;SDS011;70272;49.222;-122.892;2024-02-21T13:08:42;0.90;;;0.90;;
80854;SDS011;70272;49.222;-122.892;2024-02-21T13:11:09;0.93;;;0.90;;
80854;SDS011;70272;49.222;-122.892;2024-02-21T13:13:36;1.02;;;0.82;;
80854;SDS011;70272;49.222;-122.892;2024-02-21T13:16:03;0.80;;;0.77;;
80854;SDS011;70272;49.222;-122.892;2024-02-21T13:18:30;1.27;;;0.80;;
80854;SDS011;70272;49.222;-122.892;2024-02-21T13:20:57;1.27;;;0.82;;
80854;SDS011;70272;49.222;-122.892;2024-02-21T13:23:24;2.30;;;1.13;;
80854;SDS011;70272;49.222;-122.892;2024-02-21T13:25:50;0.90;;;0.90;;
80854;SDS011;70272;49.222;-122.892;2024-02-21T13:28:16;1.33;;;0.93;;
80854;SDS011;70272;49.222;-122.892;2024-02-21T13:30:43;0.73;;;0.73;;
80854;SDS011;70272;49.222;-122.892;2024-02-21T13:33:09;2.85;;;1.08;;
80854;SDS011;70272;49.222;-122.892;2024-02-21T13:35:36;1.30;;;0.95;;
80854;SDS011;70272;49.222;-122.892;2024-02-21T13:38:02;1.45;;;1.10;;
80854;SDS011;70272;49.222;-122.892;2024-02-21T13:40:29;1.27;;;1.17;;
80854;SDS011;70272;49.222;-122.892;2024-02-21T13:42:55;1.58;;;0.77;;
80854;SDS011;70272;49.222;-122.892;2024-02-21T13:45:22;1.00;;;0.90;;
80854;SDS011;70272;49.222;-122.892;2024-02-21T13:47:49;0.60;;;0.60;;
80854;SDS011;70272;49.222;-122.892;2024-02-21T13:50:15;1.27;;;0.88;;
80854;SDS011;70272;49.222;-122.892;2024-02-21T13:52:41;1.25;;;1.15;;
80854;SDS011;70272;49.222;-122.892;2024-02-21T13:55:08;0.90;;;0.90;;
80854;SDS011;70272;49.222;-122.892;2024-02-21T13:57:35;1.25;;;1.13;;
80854;SDS011;70272;49.222;-122.892;2024-02-21T14:00:05;2.03;;;1.20;;
80854;SDS011;70272;49.222;-122.892;2024-02-21T14:02:36;1.60;;;1.30;;
80854;SDS011;70272;49.222;-122.892;2024-02-21T14:05:03;3.15;;;1.50;;
80854;SDS011;70272;49.222;-122.892;2024-02-21T14:07:31;3.17;;;1.42;;
80854;SDS011;70272;49.222;-122.892;2024-02-21T14:10:01;2.20;;;1.17;;
80854;SDS011;70272;49.222;-122.892;2024-02-21T14:12:29;2.05;;;1.25;;
80854;SDS011;70272;49.222;-122.892;2024-02-21T14:14:55;3.50;;;1.63;;
80854;SDS011;70272;49.222;-122.892;2024-02-21T14:17:23;1.10;;;1.10;;